Time;durP1;ratioP1;P1;durP2;ratioP2;P2;SDS_P1;SDS_P2;PMS_P1;PMS_P2;Temp;Humidity;BMP_temperature;BMP_pressure;BME280_temperature;BME280_humidity;BME280_pressure;Samples;Min_cycle;Max_cycle;Signal;HPM_P1;HPM_P2
2021/07/10 00:00:52;;;;;;;11.50;4.80;;;15.30;99.70;;;;;;5051981;28;20830;-66
2021/07/10 00:03:19;;;;;;;10.43;4.97;;;15.40;99.70;;;;;;5051429;28;20539;-66
2021/07/10 00:05:46;;;;;;;8.03;4.10;;;15.40;99.70;;;;;;5050647;28;20444;-67
2021/07/10 00:08:14;;;;;;;6.50;3.53;;;15.50;99.70;;;;;;5051475;28;20440;-66
2021/07/10 00:10:41;;;;;;;12.27;4.53;;;15.40;99.70;;;;;;5050893;28;20489;-66
2021/07/10 00:13:09;;;;;;;9.03;4.67;;;15.30;99.70;;;;;;5050995;28;20517;-66
2021/07/10 00:15:36;;;;;;;9.47;4.17;;;15.30;99.70;;;;;;5051301;28;20475;-66
2021/07/10 00:18:03;;;;;;;11.07;4.43;;;15.30;99.70;;;;;;5050722;28;20459;-66
2021/07/10 00:20:29;;;;;;;11.37;4.50;;;15.20;99.70;;;;;;5051585;28;20578;-67
2021/07/10 00:22:56;;;;;;;12.30;4.60;;;15.10;99.70;;;;;;5050783;28;20487;-66
2021/07/10 00:25:23;;;;;;;11.47;4.03;;;15.10;99.70;;;;;;5051367;28;20448;-66
2021/07/10 00:27:51;;;;;;;12.97;4.83;;;15.10;99.70;;;;;;5050787;28;20447;-66
2021/07/10 00:30:20;;;;;;;10.30;5.30;;;15.20;99.70;;;;;;5050986;28;20456;-66
2021/07/10 00:32:48;;;;;;;11.93;4.27;;;15.20;99.70;;;;;;5052142;28;20475;-67
2021/07/10 00:35:15;;;;;;;11.40;4.53;;;15.10;99.70;;;;;;5050495;28;20439;-68
2021/07/10 00:37:42;;;;;;;10.93;4.00;;;15.20;99.70;;;;;;5050449;28;20542;-68
2021/07/10 00:40:11;;;;;;;10.37;4.13;;;15.10;99.70;;;;;;5050886;28;20819;-68
2021/07/10 00:42:38;;;;;;;7.10;4.00;;;15.00;99.70;;;;;;5050603;28;20915;-68
2021/07/10 00:45:08;;;;;;;8.67;4.40;;;15.00;99.70;;;;;;5050505;28;20448;-67
2021/07/10 00:47:36;;;;;;;11.90;4.87;;;15.10;99.70;;;;;;5050357;28;20474;-66
2021/07/10 00:50:07;;;;;;;9.80;4.30;;;15.00;99.70;;;;;;5050606;28;20451;-68
2021/07/10 00:52:34;;;;;;;9.70;4.80;;;15.00;99.70;;;;;;5050206;28;20470;-67
2021/07/10 00:55:01;;;;;;;13.30;4.90;;;15.00;99.70;;;;;;5050290;28;20448;-67
2021/07/10 00:57:28;;;;;;;10.33;4.70;;;14.90;99.70;;;;;;5050463;28;20970;-68
2021/07/10 00:59:54;;;;;;;11.70;4.67;;;14.90;99.70;;;;;;5050913;28;20448;-68
2021/07/10 01:02:21;;;;;;;12.00;4.73;;;14.90;99.70;;;;;;5050052;28;20483;-68
2021/07/10 01:04:49;;;;;;;11.17;4.37;;;14.90;99.70;;;;;;5050072;28;20872;-67
2021/07/10 01:07:16;;;;;;;10.37;4.77;;;14.90;99.70;;;;;;5050233;28;20447;-68
2021/07/10 01:09:43;;;;;;;8.00;4.10;;;14.90;99.70;;;;;;5050340;28;20470;-68
2021/07/10 01:12:09;;;;;;;12.87;4.87;;;14.90;99.70;;;;;;5049131;28;20463;-67
2021/07/10 01:14:37;;;;;;;10.97;3.90;;;14.70;99.70;;;;;;5050084;28;20521;-68
2021/07/10 01:17:03;;;;;;;8.00;4.37;;;14.70;99.70;;;;;;5049477;28;20458;-67
2021/07/10 01:19:30;;;;;;;10.50;4.80;;;14.80;99.70;;;;;;5050288;28;20443;-68
2021/07/10 01:21:59;;;;;;;10.63;4.50;;;14.80;99.70;;;;;;5050123;28;20484;-68
2021/07/10 01:24:26;;;;;;;7.97;4.33;;;14.70;99.70;;;;;;5049371;28;20501;-67
2021/07/10 01:26:53;;;;;;;9.90;3.80;;;14.70;99.70;;;;;;5050163;28;20497;-68
2021/07/10 01:29:20;;;;;;;10.17;4.10;;;14.70;99.70;;;;;;5049861;28;20876;-68
2021/07/10 01:31:48;;;;;;;7.30;3.73;;;14.70;99.70;;;;;;5048922;28;20486;-68
2021/07/10 01:34:14;;;;;;;9.20;4.10;;;14.70;99.70;;;;;;5049503;28;20444;-68
2021/07/10 01:36:42;;;;;;;8.53;3.90;;;14.70;99.70;;;;;;5049955;28;20456;-68
2021/07/10 01:39:10;;;;;;;7.80;3.63;;;14.70;99.70;;;;;;5049591;28;20451;-68
2021/07/10 01:41:45;;;;;;;8.10;3.70;;;14.60;99.70;;;;;;5049676;28;20448;-67
2021/07/10 01:44:12;;;;;;;9.27;3.97;;;14.60;99.70;;;;;;5049633;28;20500;-67
2021/07/10 01:46:39;;;;;;;7.00;3.70;;;14.60;99.70;;;;;;5049473;28;20523;-67
2021/07/10 01:49:06;;;;;;;9.37;4.57;;;14.50;99.70;;;;;;5049843;28;20444;-67
2021/07/10 01:51:33;;;;;;;10.37;4.90;;;14.40;99.70;;;;;;5049239;28;20447;-68
2021/07/10 01:54:00;;;;;;;9.60;4.47;;;14.40;99.70;;;;;;5049729;28;20446;-67
2021/07/10 01:56:28;;;;;;;7.20;3.67;;;14.40;99.70;;;;;;5047973;28;20862;-68
2021/07/10 01:58:55;;;;;;;7.90;4.00;;;14.40;99.70;;;;;;5049813;28;20447;-67
2021/07/10 02:01:22;;;;;;;7.00;3.80;;;14.40;99.70;;;;;;5048621;28;20521;-67
2021/07/10 02:03:49;;;;;;;9.93;4.43;;;14.50;99.70;;;;;;5049455;28;20571;-66
2021/07/10 02:06:16;;;;;;;10.00;4.00;;;14.40;99.70;;;;;;5048818;28;20527;-68
2021/07/10 02:08:43;;;;;;;10.00;3.90;;;14.30;99.70;;;;;;5049366;28;20455;-67
2021/07/10 02:11:10;;;;;;;7.17;4.07;;;14.20;99.70;;;;;;5048813;28;20447;-67
2021/07/10 02:13:38;;;;;;;7.90;3.63;;;14.20;99.70;;;;;;5049374;28;20984;-68
2021/07/10 02:16:05;;;;;;;8.00;3.70;;;14.20;99.70;;;;;;5049089;28;20497;-67
2021/07/10 02:18:31;;;;;;;7.80;3.80;;;14.20;99.70;;;;;;5049421;28;20440;-68
2021/07/10 02:20:58;;;;;;;10.90;4.17;;;14.10;99.70;;;;;;5049270;28;20443;-68
2021/07/10 02:23:25;;;;;;;6.87;3.47;;;14.10;99.70;;;;;;5048955;28;20479;-67
2021/07/10 02:25:52;;;;;;;9.47;3.03;;;14.00;99.70;;;;;;5049074;28;20456;-68
2021/07/10 02:28:18;;;;;;;9.53;4.57;;;14.00;99.70;;;;;;5051647;28;20879;-67
2021/07/10 02:30:47;;;;;;;8.00;3.40;;;14.10;99.70;;;;;;5053199;28;20947;-68
2021/07/10 02:33:15;;;;;;;9.53;3.97;;;14.10;99.70;;;;;;5053324;28;20494;-67
2021/07/10 02:35:42;;;;;;;6.50;3.47;;;14.10;99.70;;;;;;5052267;28;20443;-68
2021/07/10 02:38:09;;;;;;;6.90;3.57;;;14.10;99.70;;;;;;5053056;28;20444;-67
2021/07/10 02:40:36;;;;;;;12.07;4.37;;;14.00;99.70;;;;;;5052830;28;20861;-68
2021/07/10 02:43:04;;;;;;;8.20;3.90;;;14.00;99.70;;;;;;5053099;28;20625;-68
2021/07/10 02:45:31;;;;;;;7.20;3.47;;;14.00;99.70;;;;;;5052529;28;20450;-68
2021/07/10 02:47:59;;;;;;;8.17;3.40;;;14.00;99.70;;;;;;5053282;28;20444;-68
2021/07/10 02:50:26;;;;;;;10.17;3.93;;;14.00;99.70;;;;;;5053108;28;20480;-68
2021/07/10 02:52:54;;;;;;;8.27;4.30;;;14.00;99.70;;;;;;5052781;28;20467;-68
2021/07/10 02:55:21;;;;;;;8.43;4.17;;;13.90;99.70;;;;;;5052456;28;20872;-68
2021/07/10 02:57:48;;;;;;;9.53;3.80;;;13.90;99.70;;;;;;5052613;28;20513;-68
2021/07/10 03:00:17;;;;;;;6.47;3.77;;;14.00;99.70;;;;;;5052273;28;20505;-68
2021/07/10 03:02:44;;;;;;;7.57;3.73;;;13.90;99.70;;;;;;5032641;28;20494;-67
2021/07/10 03:05:12;;;;;;;7.30;3.93;;;14.00;99.70;;;;;;5043786;28;20444;-67
2021/07/10 03:07:41;;;;;;;7.73;3.60;;;13.90;99.70;;;;;;5052600;28;20973;-67
2021/07/10 03:10:10;;;;;;;7.63;3.40;;;13.90;99.70;;;;;;5052062;28;20939;-68
2021/07/10 03:12:37;;;;;;;7.10;3.60;;;14.00;99.70;;;;;;5051997;28;20463;-68
2021/07/10 03:15:05;;;;;;;7.63;3.43;;;14.10;99.70;;;;;;5052109;28;20501;-68
2021/07/10 03:17:32;;;;;;;9.57;4.33;;;14.00;99.70;;;;;;5052234;28;20448;-67
2021/07/10 03:19:59;;;;;;;6.80;3.70;;;14.00;99.70;;;;;;5052178;28;20478;-68
2021/07/10 03:22:27;;;;;;;7.87;4.10;;;13.90;99.70;;;;;;5052603;28;20480;-67
2021/07/10 03:24:54;;;;;;;9.37;3.80;;;13.80;99.70;;;;;;5051643;28;20826;-68
2021/07/10 03:27:21;;;;;;;8.67;4.30;;;13.90;99.70;;;;;;5051622;28;20452;-68
2021/07/10 03:29:48;;;;;;;8.87;4.30;;;13.80;99.70;;;;;;5051812;28;20471;-68
2021/07/10 03:32:15;;;;;;;5.70;3.47;;;13.80;99.70;;;;;;5052181;28;20475;-68
2021/07/10 03:34:41;;;;;;;11.67;4.27;;;13.80;99.70;;;;;;5051420;28;20455;-68
2021/07/10 03:37:08;;;;;;;8.80;4.07;;;13.80;99.70;;;;;;5051880;28;20521;-67
2021/07/10 03:39:36;;;;;;;9.30;4.43;;;13.80;99.70;;;;;;5051749;28;20443;-67
2021/07/10 03:42:03;;;;;;;8.57;3.53;;;13.90;99.70;;;;;;5051729;28;20471;-68
2021/07/10 03:44:30;;;;;;;10.53;3.97;;;13.90;99.70;;;;;;5051724;28;20451;-68
2021/07/10 03:46:56;;;;;;;7.83;4.27;;;13.90;99.70;;;;;;5051484;28;20454;-67
2021/07/10 03:49:23;;;;;;;9.27;4.20;;;13.80;99.70;;;;;;5051917;28;20446;-68
2021/07/10 03:51:50;;;;;;;11.60;4.90;;;13.80;99.70;;;;;;5051366;28;20463;-68
2021/07/10 03:54:17;;;;;;;7.73;4.07;;;13.80;99.70;;;;;;5051589;28;21000;-67
2021/07/10 03:56:46;;;;;;;8.60;3.80;;;13.90;99.70;;;;;;5050994;28;20482;-68
2021/07/10 03:59:12;;;;;;;7.80;3.43;;;14.00;99.70;;;;;;5051766;28;20444;-68
2021/07/10 04:01:41;;;;;;;10.60;3.80;;;14.10;99.70;;;;;;5051329;28;20545;-67
2021/07/10 04:04:08;;;;;;;7.63;3.07;;;13.90;99.70;;;;;;5051502;28;20780;-65
2021/07/10 04:06:35;;;;;;;7.47;3.60;;;13.90;99.70;;;;;;5051139;28;20455;-67
2021/07/10 04:09:02;;;;;;;9.57;3.47;;;14.10;99.70;;;;;;5051357;28;20475;-68
2021/07/10 04:11:29;;;;;;;8.07;3.87;;;14.00;99.70;;;;;;5050543;28;20501;-68
2021/07/10 04:13:57;;;;;;;6.03;3.50;;;13.90;99.70;;;;;;5051424;28;20440;-68
2021/07/10 04:16:24;;;;;;;7.50;3.40;;;13.90;99.70;;;;;;5051151;28;20447;-68
2021/07/10 04:18:50;;;;;;;6.67;3.13;;;13.80;99.70;;;;;;5051346;28;20475;-68
2021/07/10 04:21:17;;;;;;;9.30;4.10;;;13.80;99.70;;;;;;5050976;28;20447;-67
2021/07/10 04:23:44;;;;;;;8.20;4.20;;;13.80;99.70;;;;;;5051071;28;20475;-68
2021/07/10 04:26:11;;;;;;;7.70;4.00;;;13.80;99.70;;;;;;5050836;28;20447;-68
2021/07/10 04:28:37;;;;;;;8.03;3.50;;;13.80;99.70;;;;;;5051390;28;20513;-68
2021/07/10 04:31:05;;;;;;;7.60;3.73;;;13.90;99.70;;;;;;5050681;28;20448;-68
2021/07/10 04:33:32;;;;;;;8.60;4.07;;;13.80;99.70;;;;;;5051213;28;20468;-68
2021/07/10 04:35:59;;;;;;;7.00;3.40;;;13.90;99.70;;;;;;5050656;28;20924;-66
2021/07/10 04:38:25;;;;;;;9.03;4.20;;;13.80;99.70;;;;;;5051040;28;20451;-67
2021/07/10 04:40:52;;;;;;;8.27;3.30;;;13.90;99.70;;;;;;5051146;28;20444;-67
2021/07/10 04:43:19;;;;;;;7.27;3.60;;;14.10;99.70;;;;;;5051292;28;20491;-67
2021/07/10 04:45:45;;;;;;;8.27;3.80;;;14.10;99.70;;;;;;5050251;28;20448;-67
2021/07/10 04:48:13;;;;;;;7.00;3.27;;;14.20;99.70;;;;;;5051127;28;20538;-67
2021/07/10 04:50:40;;;;;;;11.17;4.27;;;14.40;99.70;;;;;;5050437;28;20835;-68
2021/07/10 04:53:07;;;;;;;8.70;3.97;;;14.40;99.70;;;;;;5050596;28;20456;-68
2021/07/10 04:55:33;;;;;;;7.20;3.57;;;14.40;99.70;;;;;;5050190;28;20869;-68
2021/07/10 04:58:00;;;;;;;7.70;3.73;;;14.40;99.70;;;;;;5050729;28;20451;-68
2021/07/10 05:00:28;;;;;;;8.10;3.77;;;14.50;99.70;;;;;;5050852;28;20447;-67
2021/07/10 05:02:55;;;;;;;9.70;4.20;;;14.60;99.70;;;;;;5050479;28;21001;-67
2021/07/10 05:05:23;;;;;;;9.20;4.30;;;14.60;99.70;;;;;;5050095;28;20886;-67
2021/07/10 05:07:49;;;;;;;6.70;3.60;;;14.70;99.70;;;;;;5051016;28;20497;-66
2021/07/10 05:10:16;;;;;;;9.87;4.27;;;14.70;99.70;;;;;;5050744;28;20455;-66
2021/07/10 05:12:43;;;;;;;10.63;4.60;;;14.90;99.70;;;;;;5049960;28;20472;-67
2021/07/10 05:15:10;;;;;;;9.23;3.90;;;15.00;99.70;;;;;;5049758;28;20942;-66
2021/07/10 05:17:37;;;;;;;10.93;4.70;;;15.00;99.70;;;;;;5050433;28;20451;-66
2021/07/10 05:20:05;;;;;;;11.27;4.60;;;15.00;99.70;;;;;;5050287;28;20440;-66
2021/07/10 05:22:33;;;;;;;9.93;4.60;;;15.10;99.70;;;;;;5050653;28;20468;-67
2021/07/10 05:25:00;;;;;;;8.10;4.10;;;15.10;99.70;;;;;;5049799;28;20533;-67
2021/07/10 05:27:27;;;;;;;9.33;3.70;;;15.20;99.70;;;;;;5049490;28;20876;-67
2021/07/10 05:29:53;;;;;;;8.47;4.30;;;15.30;99.70;;;;;;5050133;28;20808;-67
2021/07/10 05:32:20;;;;;;;7.70;4.17;;;15.30;99.70;;;;;;5049618;28;21013;-68
2021/07/10 05:34:47;;;;;;;9.07;4.53;;;15.40;99.70;;;;;;5049852;28;20462;-67
2021/07/10 05:37:13;;;;;;;10.27;4.60;;;15.50;99.70;;;;;;5049947;28;20474;-67
2021/07/10 05:39:42;;;;;;;7.10;4.53;;;15.50;99.70;;;;;;5049849;28;20470;-67
2021/07/10 05:42:09;;;;;;;10.00;4.37;;;15.50;99.70;;;;;;5049290;28;20475;-67
2021/07/10 05:44:36;;;;;;;8.90;3.93;;;15.60;99.70;;;;;;5049180;28;20475;-67
2021/07/10 05:47:04;;;;;;;10.77;4.60;;;15.60;99.70;;;;;;5049495;28;20447;-67
2021/07/10 05:49:31;;;;;;;10.97;4.13;;;15.70;99.70;;;;;;5049922;28;21008;-66
2021/07/10 05:51:58;;;;;;;10.20;4.77;;;15.70;99.70;;;;;;5049379;28;20464;-67
2021/07/10 05:54:25;;;;;;;10.47;4.70;;;15.80;99.70;;;;;;5049205;28;20942;-67
2021/07/10 05:56:53;;;;;;;12.13;4.40;;;15.80;99.70;;;;;;5049996;28;20855;-67
2021/07/10 05:59:20;;;;;;;8.73;3.87;;;15.90;99.70;;;;;;5049301;28;20454;-67
2021/07/10 06:01:46;;;;;;;8.87;4.00;;;16.00;99.70;;;;;;5049251;28;20472;-67
2021/07/10 06:04:13;;;;;;;10.60;4.10;;;16.00;99.70;;;;;;5052525;28;20482;-68
2021/07/10 06:06:40;;;;;;;10.83;4.70;;;16.10;99.70;;;;;;5054039;28;20882;-67
2021/07/10 06:09:06;;;;;;;7.97;4.40;;;16.20;99.70;;;;;;5053198;28;20443;-67
2021/07/10 06:11:33;;;;;;;8.97;4.60;;;16.20;99.70;;;;;;5053027;28;20451;-67
2021/07/10 06:14:03;;;;;;;9.87;4.30;;;16.30;99.70;;;;;;5052623;28;20501;-68
2021/07/10 06:16:30;;;;;;;9.27;5.10;;;16.30;99.70;;;;;;5053312;28;20534;-67
2021/07/10 06:18:57;;;;;;;8.60;4.43;;;16.50;99.70;;;;;;5053044;28;20873;-67
2021/07/10 06:21:24;;;;;;;12.20;5.00;;;16.60;99.70;;;;;;5053601;28;20513;-67
2021/07/10 06:23:51;;;;;;;8.60;4.27;;;16.60;99.70;;;;;;5053177;28;20481;-68
2021/07/10 06:26:18;;;;;;;10.53;4.63;;;16.70;99.70;;;;;;5052988;28;20447;-67
2021/07/10 06:28:47;;;;;;;10.03;5.07;;;17.00;99.70;;;;;;5053252;28;20445;-67
2021/07/10 06:31:15;;;;;;;6.60;3.90;;;17.40;99.70;;;;;;5053115;28;20451;-67
2021/07/10 06:33:41;;;;;;;8.60;4.20;;;17.70;99.70;;;;;;5052920;28;20467;-67
2021/07/10 06:36:08;;;;;;;8.53;4.60;;;18.40;99.70;;;;;;5052882;28;20443;-67
2021/07/10 06:38:35;;;;;;;10.37;4.53;;;18.70;99.70;;;;;;5053218;28;20448;-67
2021/07/10 06:41:02;;;;;;;11.07;4.50;;;18.90;99.70;;;;;;5053101;28;20448;-68
2021/07/10 06:43:28;;;;;;;7.50;4.43;;;19.60;99.70;;;;;;5052723;28;21010;-67
2021/07/10 06:45:55;;;;;;;6.87;3.87;;;19.60;99.70;;;;;;5052673;28;20879;-68
2021/07/10 06:48:23;;;;;;;8.90;4.40;;;20.50;99.70;;;;;;5052824;28;20965;-68
2021/07/10 06:50:50;;;;;;;8.57;4.40;;;20.70;99.70;;;;;;5052670;28;20443;-67
2021/07/10 06:53:21;;;;;;;7.80;4.23;;;21.40;99.70;;;;;;5052827;28;20466;-68
2021/07/10 06:55:48;;;;;;;6.43;3.83;;;21.80;99.70;;;;;;5052497;28;20447;-68
2021/07/10 06:58:15;;;;;;;7.07;4.00;;;21.50;99.70;;;;;;5052771;28;20447;-67
2021/07/10 07:00:41;;;;;;;7.03;4.10;;;21.00;99.70;;;;;;5052658;28;20454;-68
2021/07/10 07:03:08;;;;;;;8.00;4.10;;;21.30;99.70;;;;;;5052516;28;20470;-67
2021/07/10 07:05:36;;;;;;;6.40;4.03;;;21.60;99.70;;;;;;5052481;28;20958;-67
2021/07/10 07:08:03;;;;;;;5.73;3.90;;;21.70;99.70;;;;;;5053601;28;20455;-67
2021/07/10 07:10:30;;;;;;;6.97;4.07;;;21.50;99.70;;;;;;5051685;28;20204;-67
2021/07/10 07:12:58;;;;;;;6.43;3.60;;;21.90;99.70;;;;;;5052181;28;20655;-67
2021/07/10 07:15:25;;;;;;;5.73;3.87;;;21.90;99.70;;;;;;5051141;28;20447;-67
2021/07/10 07:17:52;;;;;;;7.00;4.23;;;21.50;99.70;;;;;;5052600;28;20447;-67
2021/07/10 07:20:19;;;;;;;6.87;3.90;;;21.10;99.70;;;;;;5051766;28;20447;-67
2021/07/10 07:22:49;;;;;;;7.47;3.90;;;21.20;99.70;;;;;;5052219;28;20900;-67
2021/07/10 07:25:16;;;;;;;6.30;3.90;;;21.50;99.70;;;;;;5051546;28;20860;-67
2021/07/10 07:27:43;;;;;;;6.80;3.87;;;21.30;99.70;;;;;;5051894;28;20801;-67
2021/07/10 07:30:12;;;;;;;9.57;4.00;;;21.00;99.70;;;;;;5051818;28;20451;-66
2021/07/10 07:32:38;;;;;;;9.57;4.30;;;20.80;99.70;;;;;;5051805;28;20855;-67
2021/07/10 07:35:07;;;;;;;6.13;3.13;;;20.50;99.70;;;;;;5052036;28;20439;-67
2021/07/10 07:37:34;;;;;;;9.80;4.70;;;20.50;99.70;;;;;;5051922;28;20444;-66
2021/07/10 07:40:02;;;;;;;9.03;4.60;;;20.30;99.70;;;;;;5051712;28;20455;-67
2021/07/10 07:42:28;;;;;;;8.80;4.17;;;20.10;99.70;;;;;;5051992;28;20529;-67
2021/07/10 07:44:55;;;;;;;8.50;4.60;;;20.10;99.70;;;;;;5051560;28;20491;-67
2021/07/10 07:47:22;;;;;;;9.37;4.50;;;19.80;99.70;;;;;;5052185;28;20456;-68
2021/07/10 07:49:49;;;;;;;7.77;4.13;;;19.90;99.70;;;;;;5051836;28;20481;-67
2021/07/10 07:52:16;;;;;;;10.07;4.40;;;20.00;99.70;;;;;;5051749;28;20468;-68
2021/07/10 07:54:43;;;;;;;9.87;5.20;;;20.00;99.70;;;;;;5051918;28;20527;-68
2021/07/10 07:57:11;;;;;;;7.30;4.20;;;19.90;99.70;;;;;;5052115;28;20535;-68
2021/07/10 07:59:38;;;;;;;7.90;3.90;;;19.80;99.70;;;;;;5051864;28;20539;-67
2021/07/10 08:02:08;;;;;;;9.53;4.63;;;20.00;99.70;;;;;;5051649;28;20827;-67
2021/07/10 08:04:35;;;;;;;8.33;4.13;;;20.00;99.70;;;;;;5051355;28;20506;-67
2021/07/10 08:07:03;;;;;;;9.20;4.30;;;20.00;99.70;;;;;;5051728;28;20543;-67
2021/07/10 08:09:29;;;;;;;7.20;4.03;;;19.80;99.70;;;;;;5051172;28;20911;-67
2021/07/10 08:11:56;;;;;;;8.77;4.17;;;19.80;99.70;;;;;;5051097;28;20687;-67
2021/07/10 08:14:25;;;;;;;14.23;4.30;;;19.80;99.70;;;;;;5050715;28;20958;-67
2021/07/10 08:16:52;;;;;;;8.47;4.60;;;19.80;99.70;;;;;;5051398;28;20530;-67
2021/07/10 08:19:19;;;;;;;10.07;4.30;;;19.80;99.70;;;;;;5051233;28;20452;-67
2021/07/10 08:21:46;;;;;;;10.10;3.67;;;20.00;99.70;;;;;;5051473;28;20538;-67
2021/07/10 08:24:13;;;;;;;8.00;3.70;;;20.40;99.70;;;;;;5050759;28;20479;-67
2021/07/10 08:26:39;;;;;;;6.77;3.40;;;20.20;99.70;;;;;;5050349;28;20947;-67
2021/07/10 08:29:06;;;;;;;9.43;3.90;;;20.40;99.70;;;;;;5050852;28;20475;-68
2021/07/10 08:31:40;;;;;;;7.53;3.80;;;20.20;99.70;;;;;;5048912;28;20463;-67
2021/07/10 08:34:08;;;;;;;8.57;3.97;;;20.20;99.70;;;;;;5048202;28;20439;-67
2021/07/10 08:36:34;;;;;;;9.00;4.47;;;20.20;99.70;;;;;;5050816;28;20447;-67
2021/07/10 08:39:01;;;;;;;8.30;4.27;;;20.30;99.70;;;;;;5050835;28;20502;-67
2021/07/10 08:41:28;;;;;;;9.20;4.33;;;20.30;99.70;;;;;;5050920;28;20543;-67
2021/07/10 08:43:55;;;;;;;9.70;4.60;;;20.40;99.70;;;;;;5050456;28;20452;-68
2021/07/10 08:46:21;;;;;;;10.07;3.90;;;20.40;99.70;;;;;;5050899;28;20447;-67
2021/07/10 08:48:50;;;;;;;7.30;4.10;;;20.50;99.70;;;;;;5049982;28;20452;-67
2021/07/10 08:51:17;;;;;;;8.17;4.13;;;20.40;99.70;;;;;;5050751;28;20455;-68
2021/07/10 08:53:44;;;;;;;6.33;3.87;;;20.60;99.70;;;;;;5050232;28;20471;-67
2021/07/10 08:56:11;;;;;;;5.20;3.30;;;20.70;99.70;;;;;;5050320;28;20447;-67
2021/07/10 08:58:39;;;;;;;9.40;4.27;;;20.70;99.70;;;;;;5050297;28;20460;-67
2021/07/10 09:01:07;;;;;;;7.20;4.20;;;20.60;99.70;;;;;;5050745;28;20448;-67
2021/07/10 09:03:34;;;;;;;7.37;3.50;;;20.60;99.70;;;;;;5049724;28;20478;-68
2021/07/10 09:06:02;;;;;;;7.33;3.77;;;20.60;99.70;;;;;;5050162;28;20484;-67
2021/07/10 09:08:31;;;;;;;7.47;3.50;;;20.90;99.70;;;;;;5050625;28;20448;-67
2021/07/10 09:11:00;;;;;;;8.57;3.60;;;21.00;99.70;;;;;;5050000;28;20454;-67
2021/07/10 09:13:37;;;;;;;5.20;3.17;;;20.90;99.70;;;;;;5050035;28;20464;-67
2021/07/10 09:16:07;;;;;;;8.00;3.80;;;21.00;99.70;;;;;;5046934;28;20436;-67
2021/07/10 09:18:39;;;;;;;5.20;3.30;;;21.00;99.70;;;;;;5046418;28;20490;-67
2021/07/10 09:21:08;;;;;;;5.53;3.33;;;20.90;99.70;;;;;;5048466;28;20443;-67
2021/07/10 09:23:39;;;;;;;5.70;2.90;;;21.10;99.70;;;;;;5045710;28;20467;-67
2021/07/10 09:26:17;;;;;;;4.47;3.00;;;21.30;99.70;;;;;;5048193;28;20555;-67
2021/07/10 09:28:55;;;;;;;5.87;3.03;;;21.30;99.70;;;;;;5047436;28;20475;-68
2021/07/10 09:31:26;;;;;;;4.03;2.77;;;21.30;99.70;;;;;;5047092;28;20459;-67
2021/07/10 09:33:58;;;;;;;4.30;2.53;;;21.50;99.70;;;;;;5049131;28;20839;-67
2021/07/10 09:36:26;;;;;;;4.57;3.17;;;21.50;99.70;;;;;;5047891;28;20444;-67
2021/07/10 09:38:53;;;;;;;5.40;2.50;;;21.80;99.70;;;;;;5048937;28;20822;-67
2021/07/10 09:41:27;;;;;;;4.30;2.70;;;22.20;99.70;;;;;;5045186;28;20440;-67
2021/07/10 09:44:03;;;;;;;4.10;2.37;;;22.90;98.30;;;;;;5046078;28;20439;-67
2021/07/10 09:46:30;;;;;;;3.93;2.30;;;23.00;96.90;;;;;;5050205;28;20430;-68
2021/07/10 09:48:57;;;;;;;5.13;2.40;;;23.20;98.60;;;;;;5049026;28;20798;-68
2021/07/10 09:51:26;;;;;;;3.20;2.27;;;23.40;97.60;;;;;;5049541;28;20203;-67
2021/07/10 09:54:02;;;;;;;3.67;2.50;;;23.80;95.60;;;;;;5048681;28;20223;-68
2021/07/10 09:56:30;;;;;;;4.63;2.83;;;24.00;96.60;;;;;;5048020;28;20188;-68
2021/07/10 09:58:57;;;;;;;3.03;2.20;;;24.40;94.50;;;;;;5048333;28;20192;-67
2021/07/10 10:01:31;;;;;;;4.10;2.65;;;24.80;93.50;;;;;;5048798;28;20201;-68
2021/07/10 10:03:59;;;;;;;2.67;2.38;;;24.50;91.90;;;;;;5046197;28;20192;-68
2021/07/10 10:06:31;;;;;;;2.92;2.10;;;24.80;90.80;;;;;;5048212;28;20263;-68
2021/07/10 10:08:58;;;;;;;3.42;2.25;;;25.10;89.30;;;;;;5043175;28;20250;-67
2021/07/10 10:11:25;;;;;;;2.53;2.15;;;25.40;91.00;;;;;;5047899;28;20560;-67
2021/07/10 10:13:56;;;;;;;3.30;2.58;;;25.20;87.90;;;;;;5048589;28;20250;-68
2021/07/10 10:16:23;;;;;;;3.33;2.50;;;25.10;95.30;;;;;;5047525;28;20280;-68
2021/07/10 10:18:51;;;;;;;3.50;2.60;;;24.80;92.90;;;;;;5048345;28;20208;-68
2021/07/10 10:21:18;;;;;;;3.80;2.50;;;24.60;92.10;;;;;;5049162;28;20672;-67
2021/07/10 10:23:46;;;;;;;3.23;2.40;;;24.00;93.90;;;;;;5049665;28;20224;-67
2021/07/10 10:26:13;;;;;;;4.30;2.60;;;24.00;95.20;;;;;;5049305;28;20898;-67
2021/07/10 10:28:39;;;;;;;3.03;2.20;;;23.90;95.10;;;;;;5048686;28;20842;-69
2021/07/10 10:31:06;;;;;;;4.37;2.70;;;23.80;94.60;;;;;;5045075;28;20447;-67
2021/07/10 10:33:33;;;;;;;4.00;2.70;;;23.70;97.70;;;;;;5048299;28;20473;-67
2021/07/10 10:36:00;;;;;;;4.93;2.70;;;23.50;99.60;;;;;;5049061;28;20447;-68
2021/07/10 10:38:27;;;;;;;5.30;2.80;;;23.40;97.60;;;;;;5046505;28;20539;-67
2021/07/10 10:40:55;;;;;;;4.50;3.03;;;23.40;96.30;;;;;;5048335;28;20931;-68
2021/07/10 10:43:25;;;;;;;4.20;2.50;;;23.30;99.70;;;;;;5048954;28;20990;-66
2021/07/10 10:45:52;;;;;;;3.60;2.50;;;23.20;97.30;;;;;;5049180;28;20574;-67
2021/07/10 10:48:35;;;;;;;5.17;2.87;;;23.30;97.90;;;;;;5049445;28;20443;-67
2021/07/10 10:51:02;;;;;;;5.03;2.90;;;23.00;99.70;;;;;;5033365;28;20444;-68
2021/07/10 10:53:28;;;;;;;4.43;2.60;;;23.00;99.70;;;;;;5032752;28;20518;-67
2021/07/10 10:55:56;;;;;;;4.30;2.80;;;22.90;99.70;;;;;;5032827;28;20858;-67
2021/07/10 10:58:26;;;;;;;5.10;2.90;;;23.10;99.70;;;;;;5047603;28;20451;-67
2021/07/10 11:00:59;;;;;;;4.70;2.57;;;23.00;99.20;;;;;;5052896;28;20981;-67
2021/07/10 11:03:36;;;;;;;4.60;2.53;;;23.10;99.70;;;;;;5050859;28;20997;-67
2021/07/10 11:06:03;;;;;;;4.43;2.97;;;23.10;99.70;;;;;;5051006;28;20475;-67
2021/07/10 11:08:38;;;;;;;6.47;2.90;;;23.20;99.70;;;;;;5050848;28;20935;-67
2021/07/10 11:11:41;;;;;;;5.27;3.20;;;23.20;99.70;;;;;;5051587;28;20861;-67
2021/07/10 11:14:16;;;;;;;5.10;3.00;;;23.30;99.70;;;;;;5051429;28;20443;-65
2021/07/10 11:17:11;;;;;;;7.27;3.10;;;23.30;99.10;;;;;;5052649;28;20442;-67
2021/07/10 11:19:55;;;;;;;5.30;3.13;;;23.20;99.70;;;;;;5051849;28;20439;-66
2021/07/10 11:22:57;;;;;;;5.20;3.03;;;23.20;98.60;;;;;;5052362;28;20468;-68
2021/07/10 11:26:00;;;;;;;4.97;2.73;;;22.90;99.50;;;;;;5051170;28;20525;-67
2021/07/10 11:28:34;;;;;;;6.53;2.70;;;22.70;99.70;;;;;;5051945;28;20444;-67
2021/07/10 11:31:04;;;;;;;4.33;2.70;;;22.60;99.70;;;;;;5051320;28;20456;-68
2021/07/10 11:33:57;;;;;;;4.80;2.87;;;22.60;99.70;;;;;;5051648;28;20469;-67
2021/07/10 11:36:46;;;;;;;5.17;2.77;;;22.60;99.70;;;;;;5051987;28;20448;-67
2021/07/10 11:39:38;;;;;;;4.63;2.90;;;22.40;99.70;;;;;;5051967;28;20660;-67
2021/07/10 11:42:51;;;;;;;5.57;2.80;;;22.50;99.70;;;;;;5051590;28;20475;-68
2021/07/10 11:45:28;;;;;;;4.03;2.67;;;22.70;99.70;;;;;;5051854;28;20488;-68
2021/07/10 11:47:58;;;;;;;4.30;3.00;;;22.90;99.70;;;;;;5051276;28;20448;-68
2021/07/10 11:50:27;;;;;;;4.37;2.60;;;23.10;99.70;;;;;;5051989;28;20458;-67
2021/07/10 11:53:02;;;;;;;5.00;3.10;;;22.90;99.70;;;;;;5066445;28;20463;-67
2021/07/10 11:55:31;;;;;;;5.43;2.90;;;22.90;99.70;;;;;;5071888;28;20449;-67
2021/07/10 11:58:01;;;;;;;5.70;2.67;;;22.90;99.70;;;;;;5053651;28;20545;-67
2021/07/10 12:00:29;;;;;;;4.40;2.30;;;22.70;99.70;;;;;;5050558;28;20505;-68
2021/07/10 12:02:55;;;;;;;3.83;2.67;;;22.50;99.70;;;;;;5051114;28;20467;-67
2021/07/10 12:05:24;;;;;;;4.33;2.40;;;22.60;99.70;;;;;;5051230;28;20487;-67
2021/07/10 12:07:52;;;;;;;3.87;2.40;;;22.80;99.70;;;;;;5051269;28;20505;-67
2021/07/10 12:10:22;;;;;;;3.80;2.50;;;22.80;99.70;;;;;;5052030;28;20456;-66
2021/07/10 12:12:51;;;;;;;5.70;2.93;;;23.00;99.70;;;;;;5050977;28;20829;-67
2021/07/10 12:15:20;;;;;;;4.87;2.67;;;22.90;99.70;;;;;;5050625;28;20969;-67
2021/07/10 12:17:49;;;;;;;5.17;3.20;;;22.90;99.70;;;;;;5051644;28;20451;-67
2021/07/10 12:20:20;;;;;;;5.80;2.87;;;22.90;99.70;;;;;;5051158;28;20501;-68
2021/07/10 12:22:57;;;;;;;4.43;2.93;;;22.80;99.70;;;;;;5051571;28;20521;-67
2021/07/10 12:25:29;;;;;;;4.17;2.63;;;22.70;99.20;;;;;;5050254;28;20471;-68
2021/07/10 12:27:58;;;;;;;4.07;2.27;;;22.60;99.20;;;;;;5050845;28;20452;-68
2021/07/10 12:30:39;;;;;;;4.43;2.20;;;22.80;99.70;;;;;;5050657;28;20558;-67
2021/07/10 12:33:31;;;;;;;6.90;2.70;;;22.90;99.70;;;;;;5049856;28;20479;-68
2021/07/10 12:36:20;;;;;;;5.00;2.47;;;22.90;99.70;;;;;;5050336;28;20447;-68
2021/07/10 12:39:06;;;;;;;3.97;2.80;;;22.90;99.70;;;;;;5050713;28;20448;-67
2021/07/10 12:41:37;;;;;;;5.30;2.60;;;22.90;99.70;;;;;;5046821;28;20435;-67
2021/07/10 12:44:27;;;;;;;3.30;2.40;;;23.00;99.70;;;;;;5049381;28;20806;-66
2021/07/10 12:46:57;;;;;;;3.13;2.40;;;23.00;99.70;;;;;;5046408;28;20483;-67
2021/07/10 12:49:31;;;;;;;5.60;2.50;;;23.20;99.70;;;;;;5049150;28;20472;-67
2021/07/10 12:51:58;;;;;;;3.77;2.50;;;23.10;98.90;;;;;;5047148;28;20460;-67
2021/07/10 12:54:50;;;;;;;3.90;2.30;;;23.10;96.60;;;;;;5048904;28;20466;-68